createdAt,value
2022-10-19T00:01:15.489Z,11.30
2022-10-19T00:03:44.645Z,11.30
2022-10-19T00:06:25.095Z,11.30
2022-10-19T00:09:16.323Z,11.10
2022-10-19T00:11:48.549Z,11.30
2022-10-19T00:14:21.641Z,11.40
2022-10-19T00:16:50.825Z,11.40
2022-10-19T00:19:22.534Z,11.30
2022-10-19T00:24:18.612Z,11.30
2022-10-19T00:26:45.778Z,11.30
2022-10-19T00:29:15.039Z,11.30
2022-10-19T00:31:42.838Z,11.30
2022-10-19T00:34:10.068Z,11.30
2022-10-19T00:36:41.628Z,11.30
2022-10-19T00:39:13.288Z,11.30
2022-10-19T00:41:40.909Z,11.20
2022-10-19T00:44:31.042Z,11.00
2022-10-19T00:47:05.592Z,11.00
2022-10-19T00:49:43.191Z,11.00
2022-10-19T00:52:15.330Z,11.00
2022-10-19T00:54:44.527Z,11.00
2022-10-19T00:57:12.692Z,11.00
2022-10-19T00:59:43.682Z,10.90
2022-10-19T01:02:11.379Z,10.80
2022-10-19T01:04:44.807Z,10.80
2022-10-19T01:07:13.105Z,10.70
2022-10-19T01:09:40.159Z,10.80
2022-10-19T01:12:28.014Z,10.80
2022-10-19T01:15:20.881Z,10.90
2022-10-19T01:18:10.422Z,11.00
2022-10-19T01:21:06.463Z,11.10
2022-10-19T01:24:21.742Z,11.10
2022-10-19T01:27:20.654Z,11.10
2022-10-19T01:30:13.574Z,11.20
2022-10-19T01:33:11.774Z,11.30
2022-10-19T01:35:54.036Z,11.50
2022-10-19T01:38:56.208Z,11.70
2022-10-19T01:42:08.258Z,11.70
2022-10-19T01:44:55.658Z,11.80
2022-10-19T01:47:45.503Z,11.80
2022-10-19T01:50:24.821Z,11.90
2022-10-19T01:52:53.733Z,11.90
2022-10-19T01:55:22.064Z,11.90
2022-10-19T01:57:57.278Z,11.90
2022-10-19T02:00:24.681Z,11.90
2022-10-19T02:02:54.596Z,12.00
2022-10-19T02:05:28.792Z,11.90
2022-10-19T02:08:01.550Z,12.00
2022-10-19T02:10:32.023Z,11.90
2022-10-19T02:12:59.563Z,11.90
2022-10-19T02:15:28.269Z,11.90
2022-10-19T02:17:59.779Z,11.90
2022-10-19T02:20:28.646Z,11.90
2022-10-19T02:22:55.910Z,11.80
2022-10-19T02:25:24.269Z,11.80
2022-10-19T02:27:51.364Z,11.80
2022-10-19T02:30:22.361Z,11.80
2022-10-19T02:32:51.201Z,11.80
2022-10-19T02:35:18.673Z,11.80
2022-10-19T02:37:45.966Z,12.00
2022-10-19T02:40:13.378Z,12.10
2022-10-19T02:42:57.723Z,12.20
2022-10-19T02:45:30.969Z,12.40
2022-10-19T02:48:09.079Z,12.50
2022-10-19T02:50:36.327Z,12.60
2022-10-19T02:53:03.589Z,12.70
2022-10-19T02:55:30.982Z,12.70
2022-10-19T02:57:58.298Z,12.70
2022-10-19T03:00:26.770Z,12.50
2022-10-19T03:02:56.107Z,12.40
2022-10-19T03:05:23.183Z,12.30
2022-10-19T03:07:50.317Z,12.10
2022-10-19T03:10:17.569Z,11.90
2022-10-19T03:12:44.598Z,11.80
2022-10-19T03:15:16.602Z,11.80
2022-10-19T03:17:43.842Z,11.60
2022-10-19T03:20:11.786Z,11.50
2022-10-19T03:22:38.894Z,11.40
2022-10-19T03:25:08.699Z,11.40
2022-10-19T03:27:36.043Z,11.40
2022-10-19T03:30:04.037Z,11.40
2022-10-19T03:32:31.116Z,11.40
2022-10-19T03:34:58.384Z,11.40
2022-10-19T03:37:25.370Z,11.50
2022-10-19T03:39:52.406Z,11.70
2022-10-19T03:42:19.517Z,11.80
2022-10-19T03:44:46.573Z,12.00
2022-10-19T03:47:13.605Z,12.10
2022-10-19T03:49:40.816Z,12.20
2022-10-19T03:52:10.110Z,12.20
2022-10-19T03:54:37.262Z,12.20
2022-10-19T03:57:04.302Z,12.20
2022-10-19T03:59:31.369Z,12.20
2022-10-19T04:01:58.363Z,12.10
2022-10-19T04:04:25.534Z,12.00
2022-10-19T04:06:53.988Z,11.90
2022-10-19T04:09:23.358Z,11.80
2022-10-19T04:11:51.217Z,11.80
2022-10-19T04:14:32.174Z,11.70
2022-10-19T04:17:02.005Z,11.60
2022-10-19T04:19:29.213Z,11.50
2022-10-19T04:21:56.219Z,11.40
2022-10-19T04:24:23.778Z,11.30
2022-10-19T04:26:54.253Z,11.30
2022-10-19T04:29:26.477Z,11.20
2022-10-19T04:31:56.938Z,11.10
2022-10-19T04:34:25.315Z,11.10
2022-10-19T04:36:53.983Z,11.10
2022-10-19T04:39:21.003Z,11.00
2022-10-19T04:41:48.094Z,10.90
2022-10-19T04:44:15.687Z,10.80
2022-10-19T04:46:42.819Z,10.80
2022-10-19T04:49:09.882Z,10.70
2022-10-19T04:51:36.885Z,10.70
2022-10-19T04:54:04.783Z,10.70
2022-10-19T04:56:32.557Z,10.70
2022-10-19T04:59:01.170Z,10.60
2022-10-19T05:01:30.645Z,10.70
2022-10-19T05:04:01.143Z,10.70
2022-10-19T05:06:29.705Z,10.70
2022-10-19T05:08:56.905Z,10.70
2022-10-19T05:11:24.381Z,10.70
2022-10-19T05:13:51.605Z,10.60
2022-10-19T05:16:24.062Z,10.60
2022-10-19T05:18:58.391Z,10.50
2022-10-19T05:21:27.878Z,10.50
2022-10-19T05:23:56.900Z,10.50
2022-10-19T05:26:27.869Z,10.50
2022-10-19T05:28:59.545Z,10.40
2022-10-19T05:31:30.218Z,10.40
2022-10-19T05:33:58.064Z,10.40
2022-10-19T05:36:28.872Z,10.30
2022-10-19T05:38:58.065Z,10.40
2022-10-19T05:41:28.860Z,10.40
2022-10-19T05:43:58.846Z,10.30
2022-10-19T05:46:28.021Z,10.30
2022-10-19T05:48:56.887Z,10.40
2022-10-19T05:51:28.436Z,10.30
2022-10-19T05:53:56.939Z,10.40
2022-10-19T05:56:28.121Z,10.40
2022-10-19T05:58:58.092Z,10.40
2022-10-19T06:01:26.439Z,10.30
2022-10-19T06:03:57.675Z,10.40
2022-10-19T06:06:25.843Z,10.40
2022-10-19T06:08:54.554Z,10.30
2022-10-19T06:11:29.415Z,10.40
2022-10-19T06:13:59.335Z,10.40
2022-10-19T06:16:30.258Z,10.40
2022-10-19T06:18:58.181Z,10.40
2022-10-19T06:21:31.143Z,10.40
2022-10-19T06:24:04.382Z,10.40
2022-10-19T06:26:34.155Z,10.40
2022-10-19T06:29:02.578Z,10.40
2022-10-19T06:31:33.201Z,10.40
2022-10-19T06:34:00.990Z,10.40
2022-10-19T06:36:30.933Z,10.40
2022-10-19T06:38:59.871Z,10.50
2022-10-19T06:41:27.858Z,10.50
2022-10-19T06:43:56.560Z,10.80
2022-10-19T06:46:26.621Z,11.00
2022-10-19T06:49:00.194Z,11.30
2022-10-19T06:51:29.661Z,11.40
2022-10-19T06:53:57.496Z,11.50
2022-10-19T06:56:26.798Z,11.50
2022-10-19T06:58:54.145Z,11.50
2022-10-19T07:01:22.312Z,11.40
2022-10-19T07:03:53.607Z,11.30
2022-10-19T07:06:21.581Z,11.20
2022-10-19T07:08:49.153Z,11.10
2022-10-19T07:11:20.069Z,11.10
2022-10-19T07:13:47.065Z,11.20
2022-10-19T07:16:20.723Z,11.20
2022-10-19T07:18:53.232Z,11.20
2022-10-19T07:21:23.075Z,11.30
2022-10-19T07:23:50.134Z,11.40
2022-10-19T07:26:28.276Z,11.50
2022-10-19T07:29:00.356Z,11.70
2022-10-19T07:31:31.624Z,11.80
2022-10-19T07:34:03.575Z,12.00
2022-10-19T07:36:33.646Z,12.10
2022-10-19T07:39:06.445Z,12.20
2022-10-19T07:41:37.494Z,12.40
2022-10-19T07:44:05.213Z,12.50
2022-10-19T07:46:37.308Z,12.70
2022-10-19T07:49:11.006Z,12.80
2022-10-19T07:51:39.567Z,12.90
2022-10-19T07:54:06.839Z,12.90
2022-10-19T07:56:34.186Z,13.00
2022-10-19T07:59:01.849Z,13.10
2022-10-19T08:01:37.065Z,13.10
2022-10-19T08:06:51.277Z,13.30
2022-10-19T08:09:47.389Z,13.50
2022-10-19T08:12:06.143Z,13.60
2022-10-19T08:14:33.733Z,13.70
2022-10-19T08:17:01.271Z,13.80
2022-10-19T08:19:28.566Z,13.90
2022-10-19T08:21:55.695Z,13.90
2022-10-19T08:24:22.819Z,14.00
2022-10-19T08:26:51.383Z,14.10
2022-10-19T08:29:21.417Z,14.20
2022-10-19T08:31:49.766Z,14.20
2022-10-19T08:34:17.537Z,14.40
2022-10-19T08:36:44.974Z,14.50
2022-10-19T08:39:12.963Z,14.70
2022-10-19T08:42:04.297Z,14.70
2022-10-19T08:44:55.100Z,14.80
2022-10-19T08:47:31.363Z,14.80
2022-10-19T08:49:59.618Z,14.80
2022-10-19T08:52:34.383Z,14.90
2022-10-19T08:55:29.780Z,14.90
2022-10-19T08:58:19.696Z,15.00
2022-10-19T09:00:58.340Z,15.10
2022-10-19T09:03:56.685Z,15.10
2022-10-19T09:06:37.727Z,15.10
2022-10-19T09:09:06.131Z,15.20
2022-10-19T09:11:39.128Z,15.20
2022-10-19T09:14:56.191Z,15.30
2022-10-19T09:17:25.270Z,15.40
2022-10-19T09:19:53.115Z,15.20
2022-10-19T09:22:26.626Z,15.20
2022-10-19T09:25:01.308Z,15.10
2022-10-19T09:27:38.273Z,15.10
2022-10-19T09:30:17.398Z,15.30
2022-10-19T09:32:44.639Z,15.50
2022-10-19T09:35:28.500Z,15.60
2022-10-19T09:37:56.746Z,15.80
2022-10-19T09:40:30.811Z,15.90
2022-10-19T09:42:59.499Z,16.10
2022-10-19T09:45:42.884Z,16.40
2022-10-19T09:48:31.343Z,16.60
2022-10-19T09:51:04.027Z,16.60
2022-10-19T09:53:31.260Z,16.40
2022-10-19T09:56:07.763Z,16.40
2022-10-19T09:58:35.990Z,16.40
2022-10-19T10:01:04.117Z,16.50
2022-10-19T10:03:40.489Z,16.70
2022-10-19T10:06:16.089Z,17.00
2022-10-19T10:08:51.187Z,17.30
2022-10-19T10:11:32.620Z,17.70
2022-10-19T10:14:09.820Z,18.00
2022-10-19T10:16:37.256Z,18.20
2022-10-19T10:19:08.518Z,18.40
2022-10-19T10:21:51.280Z,18.30
2022-10-19T10:24:21.383Z,18.20
2022-10-19T10:26:53.955Z,18.20
2022-10-19T10:29:35.003Z,18.10
2022-10-19T10:32:20.275Z,17.90
2022-10-19T10:35:19.150Z,17.90
2022-10-19T10:37:47.606Z,17.90
2022-10-19T10:40:31.204Z,18.00
2022-10-19T10:43:15.777Z,17.80
2022-10-19T10:45:53.107Z,17.80
2022-10-19T10:48:35.046Z,17.70
2022-10-19T10:51:02.796Z,17.80
2022-10-19T10:53:37.435Z,17.90
2022-10-19T10:56:19.580Z,17.80
2022-10-19T10:58:57.631Z,17.80
2022-10-19T11:01:39.853Z,17.80
2022-10-19T11:04:19.529Z,18.00
2022-10-19T11:07:24.281Z,18.30
2022-10-19T11:10:02.738Z,18.70
2022-10-19T11:12:38.123Z,18.80
2022-10-19T11:18:22.476Z,18.70
2022-10-19T11:21:12.076Z,18.80
2022-10-19T11:23:55.840Z,19.40
2022-10-19T11:26:51.615Z,19.70
2022-10-19T11:29:45.702Z,20.00
2022-10-19T11:32:46.903Z,19.80
2022-10-19T11:35:32.587Z,19.20
2022-10-19T11:38:20.254Z,18.90
2022-10-19T11:41:18.179Z,18.40
2022-10-19T11:44:19.662Z,18.30
2022-10-19T11:47:09.123Z,18.90
2022-10-19T11:50:31.922Z,19.90
2022-10-19T11:53:19.432Z,20.70
2022-10-19T11:55:53.897Z,21.40
2022-10-19T11:58:45.010Z,21.20
2022-10-19T12:01:45.884Z,20.70
2022-10-19T12:04:37.111Z,20.40
2022-10-19T12:07:41.567Z,20.00
2022-10-19T12:10:45.778Z,19.60
2022-10-19T12:13:42.191Z,19.60
2022-10-19T12:16:13.448Z,19.90
2022-10-19T12:18:49.150Z,19.90
2022-10-19T12:21:33.825Z,20.00
2022-10-19T12:24:05.349Z,20.40
2022-10-19T12:26:36.226Z,20.70
2022-10-19T12:29:14.193Z,21.20
2022-10-19T12:31:41.681Z,21.40
2022-10-19T12:34:22.052Z,21.90
2022-10-19T12:37:25.699Z,22.10
2022-10-19T12:40:36.648Z,22.20
2022-10-19T12:43:17.425Z,22.40
2022-10-19T12:46:40.270Z,22.50
2022-10-19T12:49:30.533Z,22.40
2022-10-19T12:51:59.593Z,22.00
2022-10-19T12:54:34.497Z,21.90
2022-10-19T12:57:03.915Z,21.70
2022-10-19T12:59:34.771Z,21.30
2022-10-19T13:02:05.760Z,20.80
2022-10-19T13:04:36.161Z,20.30
2022-10-19T13:07:08.067Z,19.70
2022-10-19T13:09:40.316Z,19.40
2022-10-19T13:12:21.317Z,19.10
2022-10-19T13:14:58.277Z,18.90
2022-10-19T13:17:37.288Z,18.80
2022-10-19T13:20:16.553Z,18.60
2022-10-19T13:23:03.595Z,18.30
2022-10-19T13:25:40.930Z,18.10
2022-10-19T13:28:07.981Z,17.90
2022-10-19T13:30:42.308Z,18.00
2022-10-19T13:33:24.842Z,17.90
2022-10-19T13:36:01.067Z,18.00
2022-10-19T13:38:43.374Z,17.80
2022-10-19T13:41:26.080Z,17.60
2022-10-19T13:44:10.366Z,17.40
2022-10-19T13:47:32.987Z,17.20
2022-10-19T13:50:42.135Z,17.20
2022-10-19T13:53:36.593Z,17.30
2022-10-19T13:56:18.091Z,17.50
2022-10-19T13:59:03.113Z,17.80
2022-10-19T14:02:09.348Z,18.00
2022-10-19T14:05:17.259Z,18.20
2022-10-19T14:08:07.185Z,18.40
2022-10-19T14:10:56.209Z,18.60
2022-10-19T14:13:22.462Z,18.70
2022-10-19T14:15:59.003Z,18.60
2022-10-19T14:18:32.750Z,18.60
2022-10-19T14:21:02.322Z,18.50
2022-10-19T14:23:33.249Z,18.40
2022-10-19T14:26:22.666Z,18.20
2022-10-19T14:28:57.241Z,17.90
2022-10-19T14:31:36.377Z,17.80
2022-10-19T14:34:08.154Z,17.70
2022-10-19T14:36:44.812Z,17.60
2022-10-19T14:39:35.670Z,17.60
2022-10-19T14:42:11.310Z,17.60
2022-10-19T14:44:44.028Z,17.40
2022-10-19T14:47:27.207Z,17.30
2022-10-19T14:49:54.371Z,17.20
2022-10-19T14:52:37.149Z,17.00
2022-10-19T14:55:17.982Z,16.90
2022-10-19T14:57:49.939Z,16.80
2022-10-19T15:00:22.681Z,16.70
2022-10-19T15:03:06.840Z,16.60
2022-10-19T15:05:37.865Z,16.40
2022-10-19T15:08:32.420Z,16.20
2022-10-19T15:10:59.663Z,16.00
2022-10-19T15:13:40.214Z,15.80
2022-10-19T15:16:29.018Z,15.50
2022-10-19T15:18:56.201Z,15.40
2022-10-19T15:21:23.302Z,15.10
2022-10-19T15:23:52.810Z,14.90
2022-10-19T15:26:29.639Z,14.90
2022-10-19T15:29:10.848Z,14.90
2022-10-19T15:31:37.946Z,14.80
2022-10-19T15:34:05.484Z,14.80
2022-10-19T15:36:33.610Z,14.70
2022-10-19T15:39:25.212Z,14.80
2022-10-19T15:42:33.670Z,14.80
2022-10-19T15:45:00.966Z,14.70
2022-10-19T15:47:28.379Z,14.70
2022-10-19T15:50:02.135Z,14.70
2022-10-19T15:52:33.787Z,14.70
2022-10-19T15:55:02.072Z,14.60
2022-10-19T15:57:38.652Z,14.50
2022-10-19T16:00:17.485Z,14.50
2022-10-19T16:02:44.815Z,14.40
2022-10-19T16:05:12.332Z,14.30
2022-10-19T16:07:41.136Z,14.30
2022-10-19T16:10:19.540Z,14.30
2022-10-19T16:12:46.869Z,14.20
2022-10-19T16:15:23.519Z,14.20
2022-10-19T16:17:57.618Z,14.00
2022-10-19T16:20:27.487Z,14.00
2022-10-19T16:22:55.354Z,13.90
2022-10-19T16:25:22.931Z,13.90
2022-10-19T16:27:50.002Z,13.90
2022-10-19T16:30:17.242Z,13.80
2022-10-19T16:32:44.365Z,13.80
2022-10-19T16:35:12.139Z,13.80
2022-10-19T16:37:40.430Z,13.80
2022-10-19T16:40:08.693Z,13.80
2022-10-19T16:42:36.050Z,13.70
2022-10-19T16:45:03.920Z,13.70
2022-10-19T16:47:31.006Z,13.60
2022-10-19T16:50:00.470Z,13.50
2022-10-19T16:52:29.458Z,13.40
2022-10-19T16:54:57.659Z,13.30
2022-10-19T16:57:25.211Z,13.30
2022-10-19T16:59:55.320Z,13.30
2022-10-19T17:02:23.350Z,13.30
2022-10-19T17:04:50.401Z,13.30
2022-10-19T17:07:18.092Z,13.20
2022-10-19T17:09:45.371Z,13.20
2022-10-19T17:12:13.054Z,13.10
2022-10-19T17:14:42.309Z,13.00
2022-10-19T17:17:11.019Z,13.00
2022-10-19T17:19:38.165Z,12.90
2022-10-19T17:22:05.647Z,12.80
2022-10-19T17:24:33.851Z,12.80
2022-10-19T17:27:03.416Z,12.80
2022-10-19T17:29:31.324Z,12.70
2022-10-19T17:31:59.473Z,12.70
2022-10-19T17:34:27.511Z,12.70
2022-10-19T17:36:54.770Z,12.60
2022-10-19T17:39:29.208Z,12.60
2022-10-19T17:42:02.012Z,12.70
2022-10-19T17:44:31.531Z,12.60
2022-10-19T17:47:00.043Z,12.60
2022-10-19T17:49:27.182Z,12.70
2022-10-19T17:51:54.218Z,12.70
2022-10-19T17:54:22.806Z,12.70
2022-10-19T17:56:49.858Z,12.60
2022-10-19T17:59:17.273Z,12.70
2022-10-19T18:01:45.458Z,12.70
2022-10-19T18:04:12.465Z,12.70
2022-10-19T18:06:39.586Z,12.70
2022-10-19T18:09:09.375Z,12.70
2022-10-19T18:11:41.435Z,12.80
2022-10-19T18:14:10.858Z,12.80
2022-10-19T18:16:45.438Z,12.70
2022-10-19T18:19:15.210Z,12.70
2022-10-19T18:21:45.161Z,12.70
2022-10-19T18:24:22.207Z,12.60
2022-10-19T18:26:50.961Z,12.60
2022-10-19T18:29:21.905Z,12.50
2022-10-19T18:31:55.063Z,12.40
2022-10-19T18:34:25.419Z,12.40
2022-10-19T18:36:54.040Z,12.40
2022-10-19T18:39:21.673Z,12.30
2022-10-19T18:41:54.688Z,12.30
2022-10-19T18:44:26.591Z,12.30
2022-10-19T18:46:54.629Z,12.20
2022-10-19T18:49:21.680Z,12.20
2022-10-19T18:51:54.149Z,12.10
2022-10-19T18:54:23.898Z,12.10
2022-10-19T18:56:50.903Z,12.00
2022-10-19T18:59:18.719Z,11.90
2022-10-19T19:01:45.879Z,11.80
2022-10-19T19:04:13.171Z,11.80
2022-10-19T19:06:40.290Z,11.80
2022-10-19T19:09:10.739Z,11.80
2022-10-19T19:11:40.974Z,11.70
2022-10-19T19:14:17.834Z,11.70
2022-10-19T19:16:45.789Z,11.60
2022-10-19T19:19:15.619Z,11.40
2022-10-19T19:21:44.705Z,11.40
2022-10-19T19:24:19.523Z,11.30
2022-10-19T19:26:51.118Z,11.30
2022-10-19T19:29:18.685Z,11.20
2022-10-19T19:31:47.224Z,11.20
2022-10-19T19:34:14.698Z,11.10
2022-10-19T19:36:47.099Z,11.10
2022-10-19T19:39:18.778Z,11.10
2022-10-19T19:41:46.711Z,11.10
2022-10-19T19:44:13.768Z,11.10
2022-10-19T19:46:40.838Z,11.10
2022-10-19T19:49:08.962Z,11.20
2022-10-19T19:51:36.049Z,11.20
2022-10-19T19:54:03.860Z,11.20
2022-10-19T19:56:32.760Z,11.10
2022-10-19T19:59:06.158Z,11.10
2022-10-19T20:01:33.485Z,11.20
2022-10-19T20:06:36.548Z,11.20
2022-10-19T20:09:05.504Z,11.20
2022-10-19T20:11:32.703Z,11.20
2022-10-19T20:13:59.837Z,11.10
2022-10-19T20:16:33.053Z,11.20
2022-10-19T20:19:14.229Z,11.10
2022-10-19T20:21:41.992Z,11.20
2022-10-19T20:24:10.102Z,11.30
2022-10-19T20:26:37.331Z,11.30
2022-10-19T20:29:05.379Z,11.30
2022-10-19T20:31:39.180Z,11.30
2022-10-19T20:34:13.833Z,11.30
2022-10-19T20:36:41.435Z,11.30
2022-10-19T20:39:09.243Z,11.30
2022-10-19T20:41:36.553Z,11.20
2022-10-19T20:44:03.734Z,11.30
2022-10-19T20:46:31.913Z,11.20
2022-10-19T20:49:01.575Z,11.20
2022-10-19T20:51:33.823Z,11.20
2022-10-19T20:54:04.183Z,11.20
2022-10-19T20:56:35.229Z,11.30
2022-10-19T20:59:18.147Z,11.20
2022-10-19T21:01:48.891Z,11.20
2022-10-19T21:04:16.709Z,11.10
2022-10-19T21:06:47.074Z,11.00
2022-10-19T21:09:18.082Z,11.00
2022-10-19T21:11:47.301Z,11.00
2022-10-19T21:14:17.840Z,11.00
2022-10-19T21:16:45.059Z,11.00
2022-10-19T21:19:15.949Z,11.00
2022-10-19T21:21:47.733Z,11.00
2022-10-19T21:24:21.720Z,11.00
2022-10-19T21:26:49.518Z,11.10
2022-10-19T21:29:17.456Z,11.10
2022-10-19T21:31:49.041Z,11.30
2022-10-19T21:34:26.502Z,11.30
2022-10-19T21:36:54.346Z,11.40
2022-10-19T21:39:21.858Z,11.50
2022-10-19T21:41:50.099Z,11.40
2022-10-19T21:44:18.576Z,11.30
2022-10-19T21:46:48.176Z,11.20
2022-10-19T21:49:15.367Z,11.30
2022-10-19T21:51:53.936Z,11.30
2022-10-19T21:54:29.231Z,11.30
2022-10-19T21:56:57.735Z,11.40
2022-10-19T21:59:25.047Z,11.40
2022-10-19T22:01:52.322Z,11.40
2022-10-19T22:04:19.369Z,11.30
2022-10-19T22:06:47.097Z,11.30
2022-10-19T22:09:19.036Z,11.30
2022-10-19T22:11:46.547Z,11.20
2022-10-19T22:14:15.495Z,11.20
2022-10-19T22:16:42.777Z,11.20
2022-10-19T22:19:10.424Z,11.10
2022-10-19T22:24:14.569Z,11.10
2022-10-19T22:26:47.867Z,11.10
2022-10-19T22:29:15.199Z,11.10
2022-10-19T22:31:42.750Z,11.10
2022-10-19T22:34:14.920Z,11.20
2022-10-19T22:36:42.435Z,11.20
2022-10-19T22:39:09.972Z,11.20
2022-10-19T22:41:37.067Z,11.20
2022-10-19T22:44:04.306Z,11.30
2022-10-19T22:46:31.820Z,11.30
2022-10-19T22:48:58.948Z,11.40
2022-10-19T22:51:26.101Z,11.40
2022-10-19T22:53:53.125Z,11.40
2022-10-19T22:56:20.192Z,11.40
2022-10-19T22:58:47.215Z,11.40
2022-10-19T23:01:16.716Z,11.40
2022-10-19T23:03:44.422Z,11.40
2022-10-19T23:06:15.204Z,11.40
2022-10-19T23:08:43.812Z,11.30
2022-10-19T23:11:11.736Z,11.30
2022-10-19T23:13:38.893Z,11.30
2022-10-19T23:16:06.860Z,11.20
2022-10-19T23:18:36.490Z,11.10
2022-10-19T23:21:08.084Z,11.10
2022-10-19T23:23:35.837Z,11.10
2022-10-19T23:26:18.821Z,11.00
2022-10-19T23:28:48.693Z,11.00
2022-10-19T23:31:20.158Z,11.10
2022-10-19T23:33:47.536Z,11.10
2022-10-19T23:36:20.120Z,11.10
2022-10-19T23:38:49.304Z,11.10
2022-10-19T23:41:17.442Z,11.00
2022-10-19T23:43:44.833Z,11.00
2022-10-19T23:46:12.263Z,11.10
2022-10-19T23:48:40.246Z,11.10
2022-10-19T23:51:11.443Z,11.10
2022-10-19T23:53:41.607Z,11.10
2022-10-19T23:56:24.938Z,11.00
2022-10-19T23:58:54.151Z,10.90
